Nearby METAR Reports

 

KCXP - Carson City, Nevada, USA
Distance from station: WSW 2mi, 3km
Updated: Wed, Feb-21-2018 4:55am PST
Overcast
Overcast
 Wind from calm
Wind: Calm
Temperature: 19°F , -7°C
Dew Point: 7°F , -14°C
Humidity: 58%
Barometer: 30.07 inHg , 1018.3 hPa
Clouds: Overcast
Visibility: 10 miles , 16 km
Cloud details: Partly cloudy 5000 ft
Overcast 6500 ft
2018/02/21 12:55 KCXP 211255Z AUTO 00000KT 10SM SCT050 OVC065 M07/M14 A3007 RMK AO2
KRNO - Reno, Nevada, USA
Distance from station: N 21mi, 34km
Updated: Wed, Feb-21-2018 3:55am PST
Mostly cloudy
Mostly cloudy
 Wind from calm
Wind: Calm
Temperature: 23°F , -5°C
Dew Point: 7°F , -14°C
Humidity: 50%
Barometer: 30.07 inHg , 1018.3 hPa
Clouds: Mostly cloudy
Visibility: 10 miles , 16 km
Cloud details: Few Clouds 8000 ft
Mostly cloudy 10000 ft
Mostly cloudy 15000 ft
2018/02/21 11:55 KRNO 211155Z 00000KT 10SM FEW080 BKN100 BKN150 M05/M14 A3007 RMK AO2 SLP200 T10501139 11022 21056 51006
 
KTRK - Truckee Tahoe, California, USA
Distance from station: WNW 24mi, 38km
Updated: Wed, Feb-21-2018 4:55am PST
Overcast
Overcast
 Wind from calm
Wind: Calm
Temperature: 9°F , -13°C
Dew Point: 3°F , -16°C
Humidity: 78%
Barometer: 30.03 inHg , 1016.9 hPa
Clouds: Overcast
Visibility: 10 miles , 16 km
Cloud details: Overcast 8500 ft
2018/02/21 12:55 KTRK 211255Z AUTO 00000KT 10SM OVC085 M13/M16 A3003 RMK AO2
KTVL - South Lake Tahoe, California, USA
Distance from station: SW 26mi, 42km
Updated: Wed, Feb-21-2018 4:53am PST
Overcast
Overcast
 Wind from S
Wind: S 6 mph , 9 km/h
Temperature: 10°F , -12°C
Wind Chill: 0°F , -18°C
Dew Point: 1°F , -17°C
Humidity: 67%
Barometer: 29.98 inHg , 1015.2 hPa
Clouds: Overcast
Visibility: 10 miles , 16 km
Cloud details: Overcast 8500 ft
2018/02/21 12:53 KTVL 211253Z AUTO 19005KT 10SM OVC085 M12/M17 A2998 RMK AO2 SLP195 T11171167
 
KRTS - Reno/Stead, Nevada, USA
Distance from station: NNW 34mi, 54km
Updated: Wed, Feb-21-2018 4:55am PST
Overcast
Overcast
 Wind from NNW
Wind: NNW 3 mph , 6 km/h
Temperature: 18°F , -8°C
Dew Point: 9°F , -13°C
Humidity: 68%
Barometer: 30.07 inHg , 1018.3 hPa
Clouds: Overcast
Visibility: 10 miles , 16 km
Cloud details: Mostly cloudy 5500 ft
Overcast 7000 ft
2018/02/21 12:55 KRTS 211255Z AUTO 33003KT 10SM BKN055 OVC070 M08/M13 A3007 RMK AO2
KBLU - Emigrant Gap, California, USA
Distance from station: W 54mi, 87km
Updated: Wed, Feb-21-2018 4:52am PST
Partly cloudy
Partly cloudy
 Wind from E
Wind: E 3 mph , 6 km/h
Temperature: 21°F , -6°C
Dew Point: 7°F , -14°C
Humidity: 54%
Barometer: 30.03 inHg , 1016.9 hPa
Clouds: Partly cloudy
Visibility: 10 miles , 16 km
Cloud details: Partly cloudy 11000 ft
2018/02/21 12:52 KBLU 211252Z AUTO 08003KT 10SM SCT110 M06/M14 A3003 RMK AO2 SLP209 T10611144
 
KNFL - Fallon Nas, Nevada, USA
Distance from station: ENE 56mi, 89km
Updated: Wed, Feb-21-2018 4:56am PST
Overcast
Overcast
 Wind from ENE
Wind: ENE 6 mph , 9 km/h
Temperature: 21°F , -6°C
Wind Chill: 13°F , -11°C
Dew Point: 16°F , -9°C
Humidity: 80%
Barometer: 30.08 inHg , 1018.6 hPa
Clouds: Overcast
Visibility: 10 miles , 16 km
Cloud details: Overcast 7500 ft
2018/02/21 12:56 KNFL 211256Z AUTO 06005KT 10SM OVC075 M06/M09 A3008 RMK AO2 SLP154 T10561094
KBAN - Bridgeport(Mcmwt, California, USA
Distance from station: S 60mi, 96km
Updated: Wed, Feb-21-2018 4:52am PST
Overcast
Overcast
 Wind from calm
Wind: Calm
Temperature: 7°F , -14°C
Dew Point: -0°F , -18°C
Humidity: 72%
Barometer: 29.96 inHg , 1014.6 hPa
Clouds: Overcast
Visibility: 10 miles , 16 km
Cloud details: Overcast 6500 ft
2018/02/21 12:52 KBAN 211252Z AUTO 00000KT 10SM OVC065 M14/M18 A2996 RMK AO2 SLP198 T11441178 $
 
KPVF - Placerville, California, USA
Distance from station: WSW 66mi, 105km
Updated: Wed, Feb-21-2018 4:35am PST
Overcast
Overcast
 Wind from E
Wind: E 8 mph , 13 km/h
Temperature: 32°F , 0°C
Wind Chill: 25°F , -4°C
Dew Point: 12°F , -11°C
Humidity: 44%
Barometer: 30.12 inHg , 1020 hPa
Clouds: Overcast
Visibility: 10 miles , 16 km
Cloud details: Overcast 7000 ft
2018/02/21 12:35 KPVF 211235Z AUTO 08007KT 10SM OVC070 00/M11 A3012 RMK AO1
KGOO - Grass Valley, California, USA
Distance from station: W 70mi, 112km
Updated: Wed, Feb-21-2018 5:00am PST
Few Clouds
Few Clouds
 Wind from calm
Wind: Calm
Temperature: 30°F , -1°C
Dew Point: 14°F , -10°C
Humidity: 51%
Barometer: 30.10 inHg , 1019.3 hPa
Clouds: Few Clouds
Visibility: 10 miles , 16 km
Cloud details: Few Clouds 8500 ft
2018/02/21 13:00 KGOO 211300Z AUTO 00000KT 10SM FEW085 M01/M10 A3010 RMK AO1
 
KAUN - Auburn Muni, California, USA
Distance from station: WSW 76mi, 123km
Updated: Wed, Feb-21-2018 4:55am PST
Partly cloudy
Partly cloudy
 Wind from E
Wind: E 6 mph , 9 km/h
Temperature: 34°F , 1°C
Wind Chill: 29°F , -2°C
Dew Point: 19°F , -7°C
Humidity: 56%
Barometer: 30.15 inHg , 1021 hPa
Clouds: Partly cloudy
Visibility: 10 miles , 16 km
Cloud details: Partly cloudy 11000 ft
2018/02/21 12:55 KAUN 211255Z AUTO 09005KT 10SM SCT110 01/M07 A3015 RMK AO1
KLOL - Lovelock, Nevada, USA
Distance from station: NE 85mi, 137km
Updated: Wed, Feb-21-2018 4:53am PST
Overcast
Overcast
 Wind from N
Wind: N 6 mph , 9 km/h
Temperature: 19°F , -7°C
Wind Chill: 11°F , -12°C
Dew Point: 9°F , -13°C
Humidity: 63%
Barometer: 30.09 inHg , 1019 hPa
Clouds: Overcast
Visibility: 10 miles , 16 km
Cloud details: Overcast 5500 ft
2018/02/21 12:53 KLOL 211253Z AUTO 36005KT 10SM OVC055 M07/M13 A3009 RMK AO2 SLP222 T10671128
 
KLHM - Lincoln, California, USA
Distance from station: WSW 91mi, 146km
Updated: Wed, Feb-21-2018 4:55am PST
Clear
Clear
 Wind from calm
Wind: Calm
Temperature: 32°F , 0°C
Dew Point: 25°F , -4°C
Humidity: 75%
Barometer: 30.19 inHg , 1022.4 hPa
Clouds: Clear
Visibility: 10 miles , 16 km
2018/02/21 12:55 KLHM 211255Z AUTO 00000KT 10SM CLR 00/M04 A3019 RMK AO1
KBAB - Beale Afb/Marysv, California, USA
Distance from station: W 92mi, 148km
Updated: Wed, Feb-21-2018 4:56am PST
Few Clouds
Few Clouds
 Wind from NW
Wind: NW 5 mph , 7 km/h
Temperature: 36°F , 2°C
Wind Chill: 32°F , 0°C
Dew Point: 25°F , -4°C
Humidity: 65%
Barometer: 30.19 inHg , 1022.4 hPa
Clouds: Few Clouds
Visibility: 10 miles , 16 km
Cloud details: Few Clouds 9500 ft
2018/02/21 12:56 KBAB 211256Z 31004KT 10SM FEW095 02/M04 A3019 RMK AO2A SLP227 T00151044 $
 
KMHR - Mather Field, California, USA
Distance from station: WSW 97mi, 156km
Updated: Wed, Feb-21-2018 3:45am PST
NOT Current
Clear
Clear
 Wind from ENE
Wind: ENE 5 mph , 7 km/h
Temperature: 32°F , 0°C
Wind Chill: 27°F , -3°C
Dew Point: 23°F , -5°C
Humidity: 69%
Barometer: 30.18 inHg , 1022 hPa
Clouds: Clear
Visibility: 10 miles , 16 km
2018/02/21 11:45 KMHR 211145Z 07004KT 10SM SKC 00/M05 A3018
KMCC - Mcclellan Afb, California, USA
Distance from station: WSW 99mi, 159km
Updated: Wed, Feb-21-2018 4:55am PST
Overcast
Overcast
 Wind from calm
Wind: Calm
Temperature: 37°F , 3°C
Dew Point: 25°F , -4°C
Humidity: 60%
Barometer: 30.21 inHg , 1023 hPa
Clouds: Overcast
Visibility: 10 miles , 16 km
Cloud details: Overcast 7000 ft
2018/02/21 12:55 KMCC 211255Z AUTO 00000KT 10SM OVC070 03/M04 A3021 RMK AO2
 
KMYV - Marysville, California, USA
Distance from station: W 100mi, 161km
Updated: Wed, Feb-21-2018 4:53am PST
Overcast
Overcast
 Wind from NNW
Wind: NNW 6 mph , 9 km/h
Temperature: 34°F , 1°C
Wind Chill: 29°F , -2°C
Dew Point: 27°F , -3°C
Humidity: 75%
Barometer: 30.22 inHg , 1023.4 hPa
Clouds: Overcast
Visibility: 10 miles , 16 km
Cloud details: Overcast 9500 ft
2018/02/21 12:53 KMYV 211253Z AUTO 34005KT 10SM OVC095 01/M03 A3022 RMK AO2 SLP236 T00061033